CheckWX is a tool to help pilots better visualize weather data.  It is not intended as a substitute for an official pre-flight weather briefing.

08:04:02 UTC

LFCR TAF
Rodez-Marcillac Airport
Rodez/Marcillac, France
TAF LFCR 190500Z 1906/2006 31008KT 9999 BKN004 BECMG 1907/1909 SCT015 TEMPO 1910/1916 SCT020TCU BECMG 1918/1920 01010KT CAVOK

Mar-19@
06:00 UTC

Mar-19 @ 06:00 UTC

Mar-19@
07:00 UTC

Mar-19 @ 07:00 UTC

TAF LFCR 190500Z 1906/2006 31008KT 9999 BKN004

Expired

Wind
  • 310° at 8 KTS
Cloud Levels
  • Broken at 400' AGL

Mar-19@
07:00 UTC

Mar-19 @ 07:00 UTC

Mar-19@
18:00 UTC

Mar-19 @ 18:00 UTC

BECMG 1907/1909 SCT015

Becoming

Becoming Conditions expected by Tue, Mar 19, 2019 @ 09:00 UTC

Wind
  • 310° at 8 KTS
Cloud Levels
  • Scattered at 1,500' AGL

Mar-19@
10:00 UTC

Mar-19 @ 10:00 UTC

Mar-19@
16:00 UTC

Mar-19 @ 16:00 UTC

TEMPO 1910/1916 SCT020TCU

Temporary

Temporary Changes expected for less than half the time period

Cloud Levels
  • Scattered at 2,000' AGL

Mar-19@
18:00 UTC

Mar-19 @ 18:00 UTC

Mar-20@
06:00 UTC

Mar-20 @ 06:00 UTC

BECMG 1918/1920 01010KT CAVOK

Becoming

Becoming Conditions expected by Tue, Mar 19, 2019 @ 20:00 UTC

Wind
  • 010° at 10 KTS
Conditions
No significant weather
Cloud Levels
  • No significant clouds